sensor_id;sensor_type;location;lat;lon;timestamp;P1;durP1;ratioP1;P2;durP2;ratioP2
49071;SDS011;52656;52.610;10.236;2023-06-22T00:00:52;9.23;;;8.20;;
49071;SDS011;52656;52.610;10.236;2023-06-22T00:03:19;8.77;;;7.88;;
49071;SDS011;52656;52.610;10.236;2023-06-22T00:05:45;9.02;;;8.13;;
49071;SDS011;52656;52.610;10.236;2023-06-22T00:08:11;9.38;;;8.07;;
49071;SDS011;52656;52.610;10.236;2023-06-22T00:10:37;8.70;;;7.80;;
49071;SDS011;52656;52.610;10.236;2023-06-22T00:13:02;8.52;;;7.63;;
49071;SDS011;52656;52.610;10.236;2023-06-22T00:15:27;8.68;;;7.78;;
49071;SDS011;52656;52.610;10.236;2023-06-22T00:17:53;8.80;;;7.90;;
49071;SDS011;52656;52.610;10.236;2023-06-22T00:20:18;8.50;;;7.60;;
49071;SDS011;52656;52.610;10.236;2023-06-22T00:22:44;9.55;;;8.55;;
49071;SDS011;52656;52.610;10.236;2023-06-22T00:25:10;9.90;;;8.32;;
49071;SDS011;52656;52.610;10.236;2023-06-22T00:27:36;10.10;;;8.48;;
49071;SDS011;52656;52.610;10.236;2023-06-22T00:30:01;9.98;;;8.25;;
49071;SDS011;52656;52.610;10.236;2023-06-22T00:32:27;9.23;;;8.30;;
49071;SDS011;52656;52.610;10.236;2023-06-22T00:34:52;8.55;;;7.60;;
49071;SDS011;52656;52.610;10.236;2023-06-22T00:37:18;10.70;;;8.30;;
49071;SDS011;52656;52.610;10.236;2023-06-22T00:39:43;9.13;;;7.57;;
49071;SDS011;52656;52.610;10.236;2023-06-22T00:42:08;9.35;;;8.38;;
49071;SDS011;52656;52.610;10.236;2023-06-22T00:44:34;11.18;;;7.97;;
49071;SDS011;52656;52.610;10.236;2023-06-22T00:47:00;9.73;;;7.72;;
49071;SDS011;52656;52.610;10.236;2023-06-22T00:49:26;10.10;;;8.45;;
49071;SDS011;52656;52.610;10.236;2023-06-22T00:51:52;8.57;;;7.53;;
49071;SDS011;52656;52.610;10.236;2023-06-22T00:54:17;11.40;;;8.20;;
49071;SDS011;52656;52.610;10.236;2023-06-22T00:56:53;15.13;;;8.30;;
49071;SDS011;52656;52.610;10.236;2023-06-22T00:59:21;9.00;;;7.97;;
49071;SDS011;52656;52.610;10.236;2023-06-22T01:01:46;9.05;;;8.10;;
49071;SDS011;52656;52.610;10.236;2023-06-22T01:04:12;9.48;;;8.48;;
49071;SDS011;52656;52.610;10.236;2023-06-22T01:06:42;10.48;;;8.63;;
49071;SDS011;52656;52.610;10.236;2023-06-22T01:09:22;9.20;;;8.15;;
49071;SDS011;52656;52.610;10.236;2023-06-22T01:11:57;9.80;;;8.60;;
49071;SDS011;52656;52.610;10.236;2023-06-22T01:14:35;9.25;;;8.25;;
49071;SDS011;52656;52.610;10.236;2023-06-22T01:17:07;8.90;;;8.00;;
49071;SDS011;52656;52.610;10.236;2023-06-22T01:19:46;9.35;;;8.32;;
49071;SDS011;52656;52.610;10.236;2023-06-22T01:22:17;11.23;;;10.00;;
49071;SDS011;52656;52.610;10.236;2023-06-22T01:30:15;9.90;;;8.90;;
49071;SDS011;52656;52.610;10.236;2023-06-22T01:32:42;12.68;;;9.05;;
49071;SDS011;52656;52.610;10.236;2023-06-22T01:35:08;9.95;;;9.00;;
49071;SDS011;52656;52.610;10.236;2023-06-22T01:37:35;9.15;;;8.25;;
49071;SDS011;52656;52.610;10.236;2023-06-22T01:40:02;11.05;;;9.52;;
49071;SDS011;52656;52.610;10.236;2023-06-22T01:42:30;11.68;;;8.77;;
49071;SDS011;52656;52.610;10.236;2023-06-22T01:44:57;11.65;;;9.10;;
49071;SDS011;52656;52.610;10.236;2023-06-22T01:47:24;10.75;;;9.48;;
49071;SDS011;52656;52.610;10.236;2023-06-22T01:49:50;9.82;;;8.82;;
49071;SDS011;52656;52.610;10.236;2023-06-22T01:52:16;9.90;;;8.77;;
49071;SDS011;52656;52.610;10.236;2023-06-22T01:54:42;11.73;;;8.93;;
49071;SDS011;52656;52.610;10.236;2023-06-22T01:57:08;9.90;;;8.90;;
49071;SDS011;52656;52.610;10.236;2023-06-22T01:59:54;10.88;;;8.85;;
49071;SDS011;52656;52.610;10.236;2023-06-22T02:02:25;9.75;;;8.75;;
49071;SDS011;52656;52.610;10.236;2023-06-22T02:05:28;9.35;;;8.32;;
49071;SDS011;52656;52.610;10.236;2023-06-22T02:07:56;10.13;;;9.02;;
49071;SDS011;52656;52.610;10.236;2023-06-22T02:10:28;9.57;;;8.45;;
49071;SDS011;52656;52.610;10.236;2023-06-22T02:12:55;10.25;;;9.25;;
49071;SDS011;52656;52.610;10.236;2023-06-22T02:15:23;11.75;;;9.38;;
49071;SDS011;52656;52.610;10.236;2023-06-22T02:17:50;10.55;;;9.05;;
49071;SDS011;52656;52.610;10.236;2023-06-22T02:20:16;9.65;;;8.57;;
49071;SDS011;52656;52.610;10.236;2023-06-22T02:22:41;12.02;;;9.35;;
49071;SDS011;52656;52.610;10.236;2023-06-22T02:25:07;9.95;;;8.95;;
49071;SDS011;52656;52.610;10.236;2023-06-22T02:27:32;10.75;;;9.65;;
49071;SDS011;52656;52.610;10.236;2023-06-22T02:29:57;9.68;;;8.40;;
49071;SDS011;52656;52.610;10.236;2023-06-22T02:32:23;11.40;;;9.20;;
49071;SDS011;52656;52.610;10.236;2023-06-22T02:34:48;14.07;;;9.00;;
49071;SDS011;52656;52.610;10.236;2023-06-22T02:37:13;10.23;;;8.68;;
49071;SDS011;52656;52.610;10.236;2023-06-22T02:39:42;11.15;;;8.95;;
49071;SDS011;52656;52.610;10.236;2023-06-22T02:42:07;9.82;;;8.80;;
49071;SDS011;52656;52.610;10.236;2023-06-22T02:44:33;10.98;;;9.18;;
49071;SDS011;52656;52.610;10.236;2023-06-22T02:46:58;10.07;;;9.02;;
49071;SDS011;52656;52.610;10.236;2023-06-22T02:49:24;11.40;;;8.55;;
49071;SDS011;52656;52.610;10.236;2023-06-22T02:51:49;10.63;;;9.48;;
49071;SDS011;52656;52.610;10.236;2023-06-22T02:54:14;8.50;;;7.65;;
49071;SDS011;52656;52.610;10.236;2023-06-22T02:56:40;10.13;;;8.18;;
49071;SDS011;52656;52.610;10.236;2023-06-22T02:59:15;9.73;;;8.73;;
49071;SDS011;52656;52.610;10.236;2023-06-22T03:01:41;10.52;;;9.43;;
49071;SDS011;52656;52.610;10.236;2023-06-22T03:04:06;11.23;;;9.02;;
49071;SDS011;52656;52.610;10.236;2023-06-22T03:06:32;10.38;;;8.35;;
49071;SDS011;52656;52.610;10.236;2023-06-22T03:09:02;9.32;;;8.38;;
49071;SDS011;52656;52.610;10.236;2023-06-22T03:11:33;10.23;;;8.52;;
49071;SDS011;52656;52.610;10.236;2023-06-22T03:13:59;9.50;;;8.30;;
49071;SDS011;52656;52.610;10.236;2023-06-22T03:16:25;8.85;;;7.95;;
49071;SDS011;52656;52.610;10.236;2023-06-22T03:18:50;9.10;;;8.20;;
49071;SDS011;52656;52.610;10.236;2023-06-22T03:23:42;9.65;;;8.63;;
49071;SDS011;52656;52.610;10.236;2023-06-22T03:26:08;8.60;;;7.72;;
49071;SDS011;52656;52.610;10.236;2023-06-22T03:28:34;9.63;;;7.70;;
49071;SDS011;52656;52.610;10.236;2023-06-22T03:30:59;8.05;;;7.22;;
49071;SDS011;52656;52.610;10.236;2023-06-22T03:33:25;10.38;;;8.23;;
49071;SDS011;52656;52.610;10.236;2023-06-22T03:35:50;9.43;;;8.38;;
49071;SDS011;52656;52.610;10.236;2023-06-22T03:38:16;9.00;;;8.02;;
49071;SDS011;52656;52.610;10.236;2023-06-22T03:40:41;11.45;;;8.25;;
49071;SDS011;52656;52.610;10.236;2023-06-22T03:43:07;8.77;;;7.15;;
49071;SDS011;52656;52.610;10.236;2023-06-22T03:45:32;8.82;;;7.85;;
49071;SDS011;52656;52.610;10.236;2023-06-22T03:47:57;9.55;;;8.18;;
49071;SDS011;52656;52.610;10.236;2023-06-22T03:50:23;9.68;;;8.40;;
49071;SDS011;52656;52.610;10.236;2023-06-22T03:52:48;8.48;;;7.65;;
49071;SDS011;52656;52.610;10.236;2023-06-22T03:55:13;9.35;;;7.85;;
49071;SDS011;52656;52.610;10.236;2023-06-22T03:57:39;12.90;;;8.68;;
49071;SDS011;52656;52.610;10.236;2023-06-22T04:00:04;10.10;;;8.18;;
49071;SDS011;52656;52.610;10.236;2023-06-22T04:02:33;9.18;;;7.95;;
49071;SDS011;52656;52.610;10.236;2023-06-22T04:04:58;9.32;;;8.32;;
49071;SDS011;52656;52.610;10.236;2023-06-22T04:07:23;9.90;;;7.88;;
49071;SDS011;52656;52.610;10.236;2023-06-22T04:09:49;8.52;;;7.72;;
49071;SDS011;52656;52.610;10.236;2023-06-22T04:12:14;8.98;;;7.20;;
49071;SDS011;52656;52.610;10.236;2023-06-22T04:14:39;9.05;;;8.10;;
49071;SDS011;52656;52.610;10.236;2023-06-22T04:17:05;8.88;;;7.75;;
49071;SDS011;52656;52.610;10.236;2023-06-22T04:19:30;7.47;;;6.68;;
49071;SDS011;52656;52.610;10.236;2023-06-22T04:21:55;8.32;;;7.40;;
49071;SDS011;52656;52.610;10.236;2023-06-22T04:24:21;9.50;;;7.35;;
49071;SDS011;52656;52.610;10.236;2023-06-22T04:26:46;9.15;;;7.47;;
49071;SDS011;52656;52.610;10.236;2023-06-22T04:29:12;8.75;;;6.95;;
49071;SDS011;52656;52.610;10.236;2023-06-22T04:31:38;8.13;;;7.18;;
49071;SDS011;52656;52.610;10.236;2023-06-22T04:34:04;7.10;;;6.40;;
49071;SDS011;52656;52.610;10.236;2023-06-22T04:36:37;7.85;;;6.55;;
49071;SDS011;52656;52.610;10.236;2023-06-22T04:39:09;9.05;;;6.78;;
49071;SDS011;52656;52.610;10.236;2023-06-22T04:41:39;7.25;;;6.47;;
49071;SDS011;52656;52.610;10.236;2023-06-22T04:44:11;8.38;;;6.68;;
49071;SDS011;52656;52.610;10.236;2023-06-22T04:46:37;9.35;;;6.72;;
49071;SDS011;52656;52.610;10.236;2023-06-22T04:49:09;9.20;;;6.72;;
49071;SDS011;52656;52.610;10.236;2023-06-22T04:51:40;7.43;;;6.00;;
49071;SDS011;52656;52.610;10.236;2023-06-22T04:54:07;7.53;;;6.22;;
49071;SDS011;52656;52.610;10.236;2023-06-22T04:56:33;8.82;;;6.13;;
49071;SDS011;52656;52.610;10.236;2023-06-22T04:58:58;6.90;;;5.70;;
49071;SDS011;52656;52.610;10.236;2023-06-22T05:01:24;7.70;;;5.85;;
49071;SDS011;52656;52.610;10.236;2023-06-22T05:03:50;10.40;;;6.55;;
49071;SDS011;52656;52.610;10.236;2023-06-22T05:06:23;7.28;;;5.90;;
49071;SDS011;52656;52.610;10.236;2023-06-22T05:08:55;7.28;;;5.68;;
49071;SDS011;52656;52.610;10.236;2023-06-22T05:11:27;7.50;;;5.40;;
49071;SDS011;52656;52.610;10.236;2023-06-22T05:13:53;6.80;;;5.53;;
49071;SDS011;52656;52.610;10.236;2023-06-22T05:16:18;7.43;;;5.82;;
49071;SDS011;52656;52.610;10.236;2023-06-22T05:18:48;6.45;;;5.40;;
49071;SDS011;52656;52.610;10.236;2023-06-22T05:21:15;8.52;;;5.70;;
49071;SDS011;52656;52.610;10.236;2023-06-22T05:23:40;6.28;;;5.57;;
49071;SDS011;52656;52.610;10.236;2023-06-22T05:26:05;7.60;;;5.60;;
49071;SDS011;52656;52.610;10.236;2023-06-22T05:28:34;9.23;;;5.97;;
49071;SDS011;52656;52.610;10.236;2023-06-22T05:30:59;8.50;;;5.72;;
49071;SDS011;52656;52.610;10.236;2023-06-22T05:33:25;6.57;;;5.20;;
49071;SDS011;52656;52.610;10.236;2023-06-22T05:35:50;6.50;;;4.97;;
49071;SDS011;52656;52.610;10.236;2023-06-22T05:38:15;6.25;;;5.00;;
49071;SDS011;52656;52.610;10.236;2023-06-22T05:40:40;7.28;;;5.15;;
49071;SDS011;52656;52.610;10.236;2023-06-22T05:43:06;8.38;;;4.75;;
49071;SDS011;52656;52.610;10.236;2023-06-22T05:45:31;8.80;;;5.22;;
49071;SDS011;52656;52.610;10.236;2023-06-22T05:47:56;10.20;;;4.95;;
49071;SDS011;52656;52.610;10.236;2023-06-22T05:50:22;8.57;;;4.85;;
49071;SDS011;52656;52.610;10.236;2023-06-22T05:52:47;6.32;;;4.55;;
49071;SDS011;52656;52.610;10.236;2023-06-22T05:55:12;6.40;;;4.60;;
49071;SDS011;52656;52.610;10.236;2023-06-22T05:57:37;9.43;;;4.90;;
49071;SDS011;52656;52.610;10.236;2023-06-22T06:00:03;7.13;;;4.78;;
49071;SDS011;52656;52.610;10.236;2023-06-22T06:02:32;6.13;;;4.78;;
49071;SDS011;52656;52.610;10.236;2023-06-22T06:04:58;6.38;;;4.65;;
49071;SDS011;52656;52.610;10.236;2023-06-22T06:07:24;6.32;;;4.53;;
49071;SDS011;52656;52.610;10.236;2023-06-22T06:09:49;8.13;;;4.60;;
49071;SDS011;52656;52.610;10.236;2023-06-22T06:12:14;6.00;;;4.70;;
49071;SDS011;52656;52.610;10.236;2023-06-22T06:14:40;7.70;;;4.38;;
49071;SDS011;52656;52.610;10.236;2023-06-22T06:17:05;5.90;;;4.47;;
49071;SDS011;52656;52.610;10.236;2023-06-22T06:19:30;6.75;;;4.55;;
49071;SDS011;52656;52.610;10.236;2023-06-22T06:21:56;6.97;;;4.18;;
49071;SDS011;52656;52.610;10.236;2023-06-22T06:24:21;6.18;;;4.13;;
49071;SDS011;52656;52.610;10.236;2023-06-22T06:26:46;6.07;;;3.97;;
49071;SDS011;52656;52.610;10.236;2023-06-22T06:29:12;7.38;;;4.13;;
49071;SDS011;52656;52.610;10.236;2023-06-22T06:31:37;6.72;;;4.47;;
49071;SDS011;52656;52.610;10.236;2023-06-22T06:34:02;6.00;;;4.03;;
49071;SDS011;52656;52.610;10.236;2023-06-22T06:36:28;5.22;;;3.83;;
49071;SDS011;52656;52.610;10.236;2023-06-22T06:38:53;6.57;;;4.53;;
49071;SDS011;52656;52.610;10.236;2023-06-22T06:41:19;8.40;;;4.40;;
49071;SDS011;52656;52.610;10.236;2023-06-22T06:43:44;6.85;;;4.05;;
49071;SDS011;52656;52.610;10.236;2023-06-22T06:46:09;5.95;;;3.78;;
49071;SDS011;52656;52.610;10.236;2023-06-22T06:48:35;6.07;;;4.15;;
49071;SDS011;52656;52.610;10.236;2023-06-22T06:51:00;8.63;;;4.38;;
49071;SDS011;52656;52.610;10.236;2023-06-22T06:53:26;8.30;;;4.60;;
49071;SDS011;52656;52.610;10.236;2023-06-22T06:55:51;6.68;;;4.65;;
49071;SDS011;52656;52.610;10.236;2023-06-22T06:58:17;6.22;;;3.70;;
49071;SDS011;52656;52.610;10.236;2023-06-22T07:00:42;6.47;;;4.10;;
49071;SDS011;52656;52.610;10.236;2023-06-22T07:03:08;5.03;;;3.97;;
49071;SDS011;52656;52.610;10.236;2023-06-22T07:05:34;5.85;;;4.15;;
49071;SDS011;52656;52.610;10.236;2023-06-22T07:08:00;7.43;;;4.18;;
49071;SDS011;52656;52.610;10.236;2023-06-22T07:10:25;8.18;;;4.18;;
49071;SDS011;52656;52.610;10.236;2023-06-22T07:12:51;6.75;;;4.30;;
49071;SDS011;52656;52.610;10.236;2023-06-22T07:15:16;8.80;;;4.47;;
49071;SDS011;52656;52.610;10.236;2023-06-22T07:17:42;8.38;;;3.92;;
49071;SDS011;52656;52.610;10.236;2023-06-22T07:20:07;6.55;;;4.10;;
49071;SDS011;52656;52.610;10.236;2023-06-22T07:22:40;5.28;;;4.05;;
49071;SDS011;52656;52.610;10.236;2023-06-22T07:25:08;9.45;;;4.30;;
49071;SDS011;52656;52.610;10.236;2023-06-22T07:27:39;5.57;;;3.25;;
49071;SDS011;52656;52.610;10.236;2023-06-22T07:30:08;6.35;;;3.50;;
49071;SDS011;52656;52.610;10.236;2023-06-22T07:32:34;6.32;;;4.30;;
49071;SDS011;52656;52.610;10.236;2023-06-22T07:35:00;6.57;;;4.15;;
49071;SDS011;52656;52.610;10.236;2023-06-22T07:37:26;5.15;;;3.78;;
49071;SDS011;52656;52.610;10.236;2023-06-22T07:39:52;6.70;;;4.13;;
49071;SDS011;52656;52.610;10.236;2023-06-22T07:42:19;5.22;;;3.53;;
49071;SDS011;52656;52.610;10.236;2023-06-22T07:44:44;6.82;;;3.70;;
49071;SDS011;52656;52.610;10.236;2023-06-22T07:47:09;6.18;;;4.00;;
49071;SDS011;52656;52.610;10.236;2023-06-22T07:49:35;5.95;;;4.05;;
49071;SDS011;52656;52.610;10.236;2023-06-22T07:52:00;8.75;;;4.22;;
49071;SDS011;52656;52.610;10.236;2023-06-22T07:54:26;5.20;;;4.13;;
49071;SDS011;52656;52.610;10.236;2023-06-22T07:56:52;5.82;;;4.20;;
49071;SDS011;52656;52.610;10.236;2023-06-22T07:59:17;5.60;;;4.03;;
49071;SDS011;52656;52.610;10.236;2023-06-22T08:01:43;5.95;;;3.90;;
49071;SDS011;52656;52.610;10.236;2023-06-22T08:04:08;5.20;;;3.80;;
49071;SDS011;52656;52.610;10.236;2023-06-22T08:06:33;5.07;;;4.22;;
49071;SDS011;52656;52.610;10.236;2023-06-22T08:08:59;6.85;;;3.17;;
49071;SDS011;52656;52.610;10.236;2023-06-22T08:11:24;6.70;;;4.28;;
49071;SDS011;52656;52.610;10.236;2023-06-22T08:13:50;7.22;;;4.50;;
49071;SDS011;52656;52.610;10.236;2023-06-22T08:16:16;5.30;;;4.00;;
49071;SDS011;52656;52.610;10.236;2023-06-22T08:18:41;7.80;;;3.92;;
49071;SDS011;52656;52.610;10.236;2023-06-22T08:21:06;7.20;;;5.00;;
49071;SDS011;52656;52.610;10.236;2023-06-22T08:23:32;6.80;;;4.80;;
49071;SDS011;52656;52.610;10.236;2023-06-22T08:25:57;7.93;;;4.75;;
49071;SDS011;52656;52.610;10.236;2023-06-22T08:28:22;5.90;;;4.95;;
49071;SDS011;52656;52.610;10.236;2023-06-22T08:30:48;5.53;;;3.90;;
49071;SDS011;52656;52.610;10.236;2023-06-22T08:33:13;7.32;;;5.13;;
49071;SDS011;52656;52.610;10.236;2023-06-22T08:35:38;6.82;;;4.20;;
49071;SDS011;52656;52.610;10.236;2023-06-22T08:38:04;6.57;;;5.57;;
49071;SDS011;52656;52.610;10.236;2023-06-22T08:40:29;6.20;;;5.18;;
49071;SDS011;52656;52.610;10.236;2023-06-22T08:42:55;7.50;;;5.20;;
49071;SDS011;52656;52.610;10.236;2023-06-22T08:45:20;6.55;;;5.40;;
49071;SDS011;52656;52.610;10.236;2023-06-22T08:47:46;6.13;;;5.53;;
49071;SDS011;52656;52.610;10.236;2023-06-22T08:50:11;6.82;;;4.95;;
49071;SDS011;52656;52.610;10.236;2023-06-22T08:52:37;6.53;;;5.00;;
49071;SDS011;52656;52.610;10.236;2023-06-22T08:55:06;6.63;;;5.78;;
49071;SDS011;52656;52.610;10.236;2023-06-22T08:57:32;5.88;;;5.28;;
49071;SDS011;52656;52.610;10.236;2023-06-22T08:59:57;8.02;;;6.25;;
49071;SDS011;52656;52.610;10.236;2023-06-22T09:02:26;7.53;;;6.45;;
49071;SDS011;52656;52.610;10.236;2023-06-22T09:04:55;7.22;;;6.05;;
49071;SDS011;52656;52.610;10.236;2023-06-22T09:07:21;7.00;;;6.30;;
49071;SDS011;52656;52.610;10.236;2023-06-22T09:09:49;6.75;;;5.65;;
49071;SDS011;52656;52.610;10.236;2023-06-22T09:12:14;7.18;;;5.80;;
49071;SDS011;52656;52.610;10.236;2023-06-22T09:14:40;6.97;;;6.28;;
49071;SDS011;52656;52.610;10.236;2023-06-22T09:17:05;6.85;;;6.07;;
49071;SDS011;52656;52.610;10.236;2023-06-22T09:19:30;7.43;;;5.50;;
49071;SDS011;52656;52.610;10.236;2023-06-22T09:21:56;9.15;;;5.55;;
49071;SDS011;52656;52.610;10.236;2023-06-22T09:24:21;7.63;;;6.82;;
49071;SDS011;52656;52.610;10.236;2023-06-22T09:26:46;7.82;;;6.82;;
49071;SDS011;52656;52.610;10.236;2023-06-22T09:29:12;8.00;;;6.57;;
49071;SDS011;52656;52.610;10.236;2023-06-22T09:31:37;9.40;;;7.30;;
49071;SDS011;52656;52.610;10.236;2023-06-22T09:34:02;8.55;;;7.22;;
49071;SDS011;52656;52.610;10.236;2023-06-22T09:36:28;7.85;;;6.78;;
49071;SDS011;52656;52.610;10.236;2023-06-22T09:38:53;9.57;;;7.15;;
49071;SDS011;52656;52.610;10.236;2023-06-22T09:41:23;7.90;;;7.10;;
49071;SDS011;52656;52.610;10.236;2023-06-22T09:43:49;8.50;;;7.70;;
49071;SDS011;52656;52.610;10.236;2023-06-22T09:46:15;9.30;;;7.03;;
49071;SDS011;52656;52.610;10.236;2023-06-22T09:48:41;9.00;;;7.30;;
49071;SDS011;52656;52.610;10.236;2023-06-22T09:51:06;9.63;;;7.53;;
49071;SDS011;52656;52.610;10.236;2023-06-22T09:53:31;7.80;;;6.95;;
49071;SDS011;52656;52.610;10.236;2023-06-22T09:55:57;7.35;;;5.80;;
49071;SDS011;52656;52.610;10.236;2023-06-22T09:58:22;9.07;;;8.18;;
49071;SDS011;52656;52.610;10.236;2023-06-22T10:00:48;8.23;;;6.60;;
49071;SDS011;52656;52.610;10.236;2023-06-22T10:03:13;8.50;;;7.60;;
49071;SDS011;52656;52.610;10.236;2023-06-22T10:05:38;7.65;;;6.55;;
49071;SDS011;52656;52.610;10.236;2023-06-22T10:08:04;9.40;;;8.07;;
49071;SDS011;52656;52.610;10.236;2023-06-22T10:10:29;9.40;;;7.72;;
49071;SDS011;52656;52.610;10.236;2023-06-22T10:12:55;10.35;;;7.53;;
49071;SDS011;52656;52.610;10.236;2023-06-22T10:15:22;8.80;;;7.72;;
49071;SDS011;52656;52.610;10.236;2023-06-22T10:17:47;8.80;;;7.90;;
49071;SDS011;52656;52.610;10.236;2023-06-22T10:20:13;8.00;;;7.25;;
49071;SDS011;52656;52.610;10.236;2023-06-22T10:22:40;8.73;;;7.30;;
49071;SDS011;52656;52.610;10.236;2023-06-22T10:25:06;8.77;;;7.60;;
49071;SDS011;52656;52.610;10.236;2023-06-22T10:27:32;8.63;;;6.57;;
49071;SDS011;52656;52.610;10.236;2023-06-22T10:29:58;8.77;;;7.80;;
49071;SDS011;52656;52.610;10.236;2023-06-22T10:32:23;9.30;;;8.30;;
49071;SDS011;52656;52.610;10.236;2023-06-22T10:34:48;9.38;;;8.40;;
49071;SDS011;52656;52.610;10.236;2023-06-22T10:37:14;10.18;;;8.80;;
49071;SDS011;52656;52.610;10.236;2023-06-22T10:39:39;10.02;;;8.70;;
49071;SDS011;52656;52.610;10.236;2023-06-22T10:42:04;18.50;;;9.20;;
49071;SDS011;52656;52.610;10.236;2023-06-22T10:44:30;11.50;;;9.15;;
49071;SDS011;52656;52.610;10.236;2023-06-22T10:46:55;10.07;;;8.82;;
49071;SDS011;52656;52.610;10.236;2023-06-22T10:49:20;8.90;;;8.05;;
49071;SDS011;52656;52.610;10.236;2023-06-22T10:51:46;9.55;;;8.30;;
49071;SDS011;52656;52.610;10.236;2023-06-22T10:54:11;9.90;;;8.40;;
49071;SDS011;52656;52.610;10.236;2023-06-22T10:56:38;9.32;;;8.35;;
49071;SDS011;52656;52.610;10.236;2023-06-22T10:59:04;9.15;;;7.47;;
49071;SDS011;52656;52.610;10.236;2023-06-22T11:01:30;9.93;;;8.20;;
49071;SDS011;52656;52.610;10.236;2023-06-22T11:03:56;8.80;;;7.50;;
49071;SDS011;52656;52.610;10.236;2023-06-22T11:06:22;8.75;;;7.88;;
49071;SDS011;52656;52.610;10.236;2023-06-22T11:08:47;9.45;;;7.75;;
49071;SDS011;52656;52.610;10.236;2023-06-22T11:11:12;8.63;;;7.72;;
49071;SDS011;52656;52.610;10.236;2023-06-22T11:13:37;8.77;;;7.88;;
49071;SDS011;52656;52.610;10.236;2023-06-22T11:16:03;8.90;;;8.02;;
49071;SDS011;52656;52.610;10.236;2023-06-22T11:18:28;8.48;;;7.65;;
49071;SDS011;52656;52.610;10.236;2023-06-22T11:20:54;8.25;;;7.30;;
49071;SDS011;52656;52.610;10.236;2023-06-22T11:23:19;9.90;;;8.15;;
49071;SDS011;52656;52.610;10.236;2023-06-22T11:25:44;9.68;;;8.68;;
49071;SDS011;52656;52.610;10.236;2023-06-22T11:28:11;12.63;;;8.40;;
49071;SDS011;52656;52.610;10.236;2023-06-22T11:30:36;9.25;;;7.45;;
49071;SDS011;52656;52.610;10.236;2023-06-22T11:33:02;10.38;;;8.25;;
49071;SDS011;52656;52.610;10.236;2023-06-22T11:35:27;8.35;;;6.38;;
49071;SDS011;52656;52.610;10.236;2023-06-22T11:37:52;10.55;;;7.38;;
49071;SDS011;52656;52.610;10.236;2023-06-22T11:40:17;12.60;;;8.68;;
49071;SDS011;52656;52.610;10.236;2023-06-22T11:42:43;9.02;;;8.13;;
49071;SDS011;52656;52.610;10.236;2023-06-22T11:45:08;9.48;;;8.50;;
49071;SDS011;52656;52.610;10.236;2023-06-22T11:47:34;9.55;;;8.55;;
49071;SDS011;52656;52.610;10.236;2023-06-22T11:49:59;9.65;;;7.63;;
49071;SDS011;52656;52.610;10.236;2023-06-22T11:52:25;9.32;;;8.43;;
49071;SDS011;52656;52.610;10.236;2023-06-22T11:54:52;9.02;;;7.93;;
49071;SDS011;52656;52.610;10.236;2023-06-22T11:57:17;9.52;;;7.97;;
49071;SDS011;52656;52.610;10.236;2023-06-22T11:59:42;10.93;;;8.10;;
49071;SDS011;52656;52.610;10.236;2023-06-22T12:02:08;9.43;;;7.40;;
49071;SDS011;52656;52.610;10.236;2023-06-22T12:04:34;8.68;;;7.60;;
49071;SDS011;52656;52.610;10.236;2023-06-22T12:06:59;9.35;;;7.60;;
49071;SDS011;52656;52.610;10.236;2023-06-22T12:09:25;9.95;;;6.10;;
49071;SDS011;52656;52.610;10.236;2023-06-22T12:11:50;8.13;;;7.25;;
49071;SDS011;52656;52.610;10.236;2023-06-22T12:14:15;9.93;;;7.85;;
49071;SDS011;52656;52.610;10.236;2023-06-22T12:16:41;10.75;;;8.32;;
49071;SDS011;52656;52.610;10.236;2023-06-22T12:19:06;8.70;;;7.90;;
49071;SDS011;52656;52.610;10.236;2023-06-22T12:21:31;9.20;;;7.78;;
49071;SDS011;52656;52.610;10.236;2023-06-22T12:23:57;9.43;;;7.53;;
49071;SDS011;52656;52.610;10.236;2023-06-22T12:26:22;7.68;;;5.90;;
49071;SDS011;52656;52.610;10.236;2023-06-22T12:28:47;10.40;;;8.00;;
49071;SDS011;52656;52.610;10.236;2023-06-22T12:31:14;9.13;;;5.90;;
49071;SDS011;52656;52.610;10.236;2023-06-22T12:33:39;9.10;;;6.82;;
49071;SDS011;52656;52.610;10.236;2023-06-22T12:36:05;8.45;;;7.05;;
49071;SDS011;52656;52.610;10.236;2023-06-22T12:38:30;9.82;;;6.43;;
49071;SDS011;52656;52.610;10.236;2023-06-22T12:40:55;7.68;;;6.38;;
49071;SDS011;52656;52.610;10.236;2023-06-22T12:43:21;9.05;;;7.28;;
49071;SDS011;52656;52.610;10.236;2023-06-22T12:45:46;8.52;;;7.63;;
49071;SDS011;52656;52.610;10.236;2023-06-22T12:48:11;8.82;;;6.18;;
49071;SDS011;52656;52.610;10.236;2023-06-22T12:50:37;7.55;;;6.82;;
49071;SDS011;52656;52.610;10.236;2023-06-22T12:53:03;9.43;;;7.80;;
49071;SDS011;52656;52.610;10.236;2023-06-22T12:55:29;8.10;;;6.93;;
49071;SDS011;52656;52.610;10.236;2023-06-22T12:57:55;7.78;;;6.97;;
49071;SDS011;52656;52.610;10.236;2023-06-22T13:00:20;8.13;;;7.32;;
49071;SDS011;52656;52.610;10.236;2023-06-22T13:02:45;7.40;;;5.82;;
49071;SDS011;52656;52.610;10.236;2023-06-22T13:05:11;8.23;;;5.57;;
49071;SDS011;52656;52.610;10.236;2023-06-22T13:07:36;8.80;;;6.72;;
49071;SDS011;52656;52.610;10.236;2023-06-22T13:10:02;6.72;;;5.57;;
49071;SDS011;52656;52.610;10.236;2023-06-22T13:12:27;8.40;;;6.90;;
49071;SDS011;52656;52.610;10.236;2023-06-22T13:14:53;7.70;;;6.00;;
49071;SDS011;52656;52.610;10.236;2023-06-22T13:17:18;7.65;;;6.75;;
49071;SDS011;52656;52.610;10.236;2023-06-22T13:19:43;7.93;;;6.68;;
49071;SDS011;52656;52.610;10.236;2023-06-22T13:22:30;8.88;;;7.00;;
49071;SDS011;52656;52.610;10.236;2023-06-22T13:24:59;14.85;;;7.07;;
49071;SDS011;52656;52.610;10.236;2023-06-22T13:27:25;6.65;;;5.05;;
49071;SDS011;52656;52.610;10.236;2023-06-22T13:29:50;8.40;;;6.18;;
49071;SDS011;52656;52.610;10.236;2023-06-22T13:32:16;9.15;;;6.93;;
49071;SDS011;52656;52.610;10.236;2023-06-22T13:34:41;9.52;;;6.18;;
49071;SDS011;52656;52.610;10.236;2023-06-22T13:37:07;8.23;;;5.82;;
49071;SDS011;52656;52.610;10.236;2023-06-22T13:39:33;7.72;;;6.60;;
49071;SDS011;52656;52.610;10.236;2023-06-22T13:41:58;9.40;;;6.82;;
49071;SDS011;52656;52.610;10.236;2023-06-22T13:44:23;8.40;;;7.00;;
49071;SDS011;52656;52.610;10.236;2023-06-22T13:46:52;9.18;;;6.05;;
49071;SDS011;52656;52.610;10.236;2023-06-22T13:49:18;11.55;;;7.40;;
49071;SDS011;52656;52.610;10.236;2023-06-22T13:51:43;8.57;;;6.70;;
49071;SDS011;52656;52.610;10.236;2023-06-22T13:54:08;9.57;;;7.28;;
49071;SDS011;52656;52.610;10.236;2023-06-22T13:56:33;7.38;;;6.22;;
49071;SDS011;52656;52.610;10.236;2023-06-22T13:58:59;9.23;;;7.75;;
49071;SDS011;52656;52.610;10.236;2023-06-22T14:01:24;8.95;;;7.53;;
49071;SDS011;52656;52.610;10.236;2023-06-22T14:03:49;9.50;;;7.18;;
49071;SDS011;52656;52.610;10.236;2023-06-22T14:06:15;8.00;;;6.78;;
49071;SDS011;52656;52.610;10.236;2023-06-22T14:08:40;8.57;;;7.07;;
49071;SDS011;52656;52.610;10.236;2023-06-22T14:11:05;10.10;;;7.00;;
49071;SDS011;52656;52.610;10.236;2023-06-22T14:13:30;9.75;;;8.75;;
49071;SDS011;52656;52.610;10.236;2023-06-22T14:15:56;10.02;;;8.77;;
49071;SDS011;52656;52.610;10.236;2023-06-22T14:18:21;9.82;;;7.65;;
49071;SDS011;52656;52.610;10.236;2023-06-22T14:20:49;8.73;;;7.82;;
49071;SDS011;52656;52.610;10.236;2023-06-22T14:23:14;9.10;;;7.82;;
49071;SDS011;52656;52.610;10.236;2023-06-22T14:25:40;9.38;;;6.72;;
49071;SDS011;52656;52.610;10.236;2023-06-22T14:28:05;9.73;;;8.73;;
49071;SDS011;52656;52.610;10.236;2023-06-22T14:30:31;9.95;;;8.65;;
49071;SDS011;52656;52.610;10.236;2023-06-22T14:32:56;11.30;;;8.57;;
49071;SDS011;52656;52.610;10.236;2023-06-22T14:35:21;10.60;;;7.95;;